sensor_id;sensor_type;location;lat;lon;timestamp;pressure;altitude;pressure_sealevel;temperature;humidity
11525;BME280;5819;49.648;8.330;2023-01-26T00:01:42;101181.03;;;0.51;100.00
11525;BME280;5819;49.648;8.330;2023-01-26T00:04:10;101183.66;;;0.56;100.00
11525;BME280;5819;49.648;8.330;2023-01-26T00:06:38;101187.88;;;0.54;100.00
11525;BME280;5819;49.648;8.330;2023-01-26T00:09:05;101186.22;;;0.57;100.00
11525;BME280;5819;49.648;8.330;2023-01-26T00:11:33;101177.66;;;0.57;100.00
11525;BME280;5819;49.648;8.330;2023-01-26T00:14:01;101187.06;;;0.58;100.00
11525;BME280;5819;49.648;8.330;2023-01-26T00:16:29;101176.09;;;0.68;100.00
11525;BME280;5819;49.648;8.330;2023-01-26T00:19:00;101178.50;;;0.54;100.00
11525;BME280;5819;49.648;8.330;2023-01-26T00:21:31;101164.91;;;0.58;100.00
11525;BME280;5819;49.648;8.330;2023-01-26T00:24:03;101172.59;;;0.60;100.00
11525;BME280;5819;49.648;8.330;2023-01-26T00:26:34;101164.00;;;0.55;100.00
11525;BME280;5819;49.648;8.330;2023-01-26T00:29:05;101167.41;;;0.52;100.00
11525;BME280;5819;49.648;8.330;2023-01-26T00:31:37;101161.41;;;0.53;100.00
11525;BME280;5819;49.648;8.330;2023-01-26T00:34:11;101152.94;;;0.56;100.00
11525;BME280;5819;49.648;8.330;2023-01-26T00:36:58;101157.19;;;0.55;100.00
11525;BME280;5819;49.648;8.330;2023-01-26T00:39:30;101151.16;;;0.50;100.00
11525;BME280;5819;49.648;8.330;2023-01-26T00:42:01;101157.16;;;0.54;100.00
11525;BME280;5819;49.648;8.330;2023-01-26T00:44:41;101145.19;;;0.53;100.00
11525;BME280;5819;49.648;8.330;2023-01-26T00:47:10;101138.38;;;0.52;100.00
11525;BME280;5819;49.648;8.330;2023-01-26T00:49:40;101144.41;;;0.55;100.00
11525;BME280;5819;49.648;8.330;2023-01-26T00:52:08;101151.19;;;0.52;100.00
11525;BME280;5819;49.648;8.330;2023-01-26T00:54:36;101148.66;;;0.55;100.00
11525;BME280;5819;49.648;8.330;2023-01-26T00:57:04;101145.22;;;0.51;100.00
11525;BME280;5819;49.648;8.330;2023-01-26T00:59:32;101141.84;;;0.57;100.00
11525;BME280;5819;49.648;8.330;2023-01-26T01:02:00;101144.38;;;0.54;100.00
11525;BME280;5819;49.648;8.330;2023-01-26T01:04:29;101143.56;;;0.58;100.00
11525;BME280;5819;49.648;8.330;2023-01-26T01:07:00;101144.44;;;0.60;100.00
11525;BME280;5819;49.648;8.330;2023-01-26T01:09:28;101140.91;;;0.50;100.00
11525;BME280;5819;49.648;8.330;2023-01-26T01:11:56;101152.78;;;0.45;100.00
11525;BME280;5819;49.648;8.330;2023-01-26T01:14:26;101147.75;;;0.48;100.00
11525;BME280;5819;49.648;8.330;2023-01-26T01:16:54;101142.63;;;0.53;100.00
11525;BME280;5819;49.648;8.330;2023-01-26T01:19:22;101146.06;;;0.53;100.00
11525;BME280;5819;49.648;8.330;2023-01-26T01:21:49;101144.38;;;0.52;100.00
11525;BME280;5819;49.648;8.330;2023-01-26T01:24:19;101145.25;;;0.56;100.00
11525;BME280;5819;49.648;8.330;2023-01-26T01:26:47;101142.66;;;0.51;100.00
11525;BME280;5819;49.648;8.330;2023-01-26T01:29:14;101150.34;;;0.54;100.00
11525;BME280;5819;49.648;8.330;2023-01-26T01:31:42;101148.56;;;0.48;100.00
11525;BME280;5819;49.648;8.330;2023-01-26T01:34:10;101147.00;;;0.61;100.00
11525;BME280;5819;49.648;8.330;2023-01-26T01:36:38;101144.34;;;0.51;100.00
11525;BME280;5819;49.648;8.330;2023-01-26T01:39:06;101143.44;;;0.47;100.00
11525;BME280;5819;49.648;8.330;2023-01-26T01:41:35;101146.81;;;0.43;100.00
11525;BME280;5819;49.648;8.330;2023-01-26T01:44:15;101144.31;;;0.49;100.00
11525;BME280;5819;49.648;8.330;2023-01-26T01:46:47;101134.88;;;0.43;100.00
11525;BME280;5819;49.648;8.330;2023-01-26T01:49:19;101137.38;;;0.40;100.00
11525;BME280;5819;49.648;8.330;2023-01-26T01:51:52;101138.31;;;0.44;100.00
11525;BME280;5819;49.648;8.330;2023-01-26T01:54:26;101131.47;;;0.43;100.00
11525;BME280;5819;49.648;8.330;2023-01-26T01:56:59;101142.56;;;0.45;100.00
11525;BME280;5819;49.648;8.330;2023-01-26T01:59:30;101134.06;;;0.46;100.00
11525;BME280;5819;49.648;8.330;2023-01-26T02:05:44;101134.84;;;0.42;100.00
11525;BME280;5819;49.648;8.330;2023-01-26T02:08:16;101133.16;;;0.42;100.00
11525;BME280;5819;49.648;8.330;2023-01-26T02:10:47;101133.06;;;0.35;100.00
11525;BME280;5819;49.648;8.330;2023-01-26T02:13:18;101128.78;;;0.34;100.00
11525;BME280;5819;49.648;8.330;2023-01-26T02:15:48;101127.16;;;0.39;100.00
11525;BME280;5819;49.648;8.330;2023-01-26T02:18:17;101121.16;;;0.35;100.00
11525;BME280;5819;49.648;8.330;2023-01-26T02:20:46;101122.88;;;0.38;100.00
11525;BME280;5819;49.648;8.330;2023-01-26T02:23:30;101112.63;;;0.38;100.00
11525;BME280;5819;49.648;8.330;2023-01-26T02:26:10;101121.22;;;0.40;100.00
11525;BME280;5819;49.648;8.330;2023-01-26T02:28:40;101118.66;;;0.40;100.00
11525;BME280;5819;49.648;8.330;2023-01-26T02:31:09;101127.97;;;0.35;100.00
11525;BME280;5819;49.648;8.330;2023-01-26T02:33:39;101117.69;;;0.33;100.00
11525;BME280;5819;49.648;8.330;2023-01-26T02:36:16;101116.03;;;0.35;100.00
11525;BME280;5819;49.648;8.330;2023-01-26T02:38:54;101118.63;;;0.38;100.00
11525;BME280;5819;49.648;8.330;2023-01-26T02:41:27;101111.81;;;0.42;100.00
11525;BME280;5819;49.648;8.330;2023-01-26T02:44:13;101102.47;;;0.42;100.00
11525;BME280;5819;49.648;8.330;2023-01-26T02:46:42;101099.03;;;0.42;100.00
11525;BME280;5819;49.648;8.330;2023-01-26T02:49:10;101099.94;;;0.44;100.00
11525;BME280;5819;49.648;8.330;2023-01-26T02:51:55;101100.75;;;0.43;100.00
11525;BME280;5819;49.648;8.330;2023-01-26T02:54:23;101093.09;;;0.43;100.00
11525;BME280;5819;49.648;8.330;2023-01-26T02:57:10;101097.31;;;0.39;100.00
11525;BME280;5819;49.648;8.330;2023-01-26T03:03:45;101092.28;;;0.47;100.00
11525;BME280;5819;49.648;8.330;2023-01-26T03:06:13;101093.06;;;0.40;100.00
11525;BME280;5819;49.648;8.330;2023-01-26T03:08:41;101087.91;;;0.38;100.00
11525;BME280;5819;49.648;8.330;2023-01-26T03:11:10;101077.72;;;0.40;100.00
11525;BME280;5819;49.648;8.330;2023-01-26T03:13:40;101078.59;;;0.45;100.00
11525;BME280;5819;49.648;8.330;2023-01-26T03:16:08;101075.16;;;0.40;100.00
11525;BME280;5819;49.648;8.330;2023-01-26T03:18:37;101077.66;;;0.37;100.00
11525;BME280;5819;49.648;8.330;2023-01-26T03:21:22;101079.31;;;0.33;100.00
11525;BME280;5819;49.648;8.330;2023-01-26T03:24:12;101064.88;;;0.38;100.00
11525;BME280;5819;49.648;8.330;2023-01-26T03:27:03;101060.66;;;0.42;100.00
11525;BME280;5819;49.648;8.330;2023-01-26T03:29:51;101056.31;;;0.36;100.00
11525;BME280;5819;49.648;8.330;2023-01-26T03:32:20;101053.78;;;0.38;100.00
11525;BME280;5819;49.648;8.330;2023-01-26T03:34:49;101059.78;;;0.41;100.00
11525;BME280;5819;49.648;8.330;2023-01-26T03:37:17;101055.50;;;0.40;100.00
11525;BME280;5819;49.648;8.330;2023-01-26T03:39:56;101048.72;;;0.42;100.00
11525;BME280;5819;49.648;8.330;2023-01-26T03:42:42;101041.91;;;0.44;100.00
11525;BME280;5819;49.648;8.330;2023-01-26T03:45:30;101035.06;;;0.42;100.00
11525;BME280;5819;49.648;8.330;2023-01-26T03:48:17;101044.47;;;0.43;100.00
11525;BME280;5819;49.648;8.330;2023-01-26T03:51:05;101035.06;;;0.42;100.00
11525;BME280;5819;49.648;8.330;2023-01-26T03:53:51;101036.84;;;0.51;100.00
11525;BME280;5819;49.648;8.330;2023-01-26T03:56:36;101034.22;;;0.40;100.00
11525;BME280;5819;49.648;8.330;2023-01-26T03:59:11;101035.03;;;0.39;100.00
11525;BME280;5819;49.648;8.330;2023-01-26T04:01:44;101035.00;;;0.37;100.00
11525;BME280;5819;49.648;8.330;2023-01-26T04:04:30;101030.75;;;0.38;100.00
11525;BME280;5819;49.648;8.330;2023-01-26T04:07:17;101028.16;;;0.33;100.00
11525;BME280;5819;49.648;8.330;2023-01-26T04:10:03;101037.53;;;0.33;100.00
11525;BME280;5819;49.648;8.330;2023-01-26T04:12:32;101031.63;;;0.38;100.00
11525;BME280;5819;49.648;8.330;2023-01-26T04:15:11;101030.75;;;0.38;100.00
11525;BME280;5819;49.648;8.330;2023-01-26T04:17:58;101032.47;;;0.37;100.00
11525;BME280;5819;49.648;8.330;2023-01-26T04:20:43;101029.00;;;0.32;100.00
11525;BME280;5819;49.648;8.330;2023-01-26T04:23:29;101033.31;;;0.38;100.00
11525;BME280;5819;49.648;8.330;2023-01-26T04:25:58;101027.41;;;0.43;100.00
11525;BME280;5819;49.648;8.330;2023-01-26T04:28:26;101024.75;;;0.34;100.00
11525;BME280;5819;49.648;8.330;2023-01-26T04:30:54;101023.88;;;0.31;100.00
11525;BME280;5819;49.648;8.330;2023-01-26T04:33:23;101026.38;;;0.26;100.00
11525;BME280;5819;49.648;8.330;2023-01-26T04:35:51;101022.97;;;0.29;100.00
11525;BME280;5819;49.648;8.330;2023-01-26T04:38:19;101016.13;;;0.23;100.00
11525;BME280;5819;49.648;8.330;2023-01-26T04:40:52;101019.50;;;0.21;100.00
11525;BME280;5819;49.648;8.330;2023-01-26T04:43:20;101006.81;;;0.30;100.00
11525;BME280;5819;49.648;8.330;2023-01-26T04:45:56;101002.56;;;0.33;100.00
11525;BME280;5819;49.648;8.330;2023-01-26T04:48:27;101001.66;;;0.27;100.00
11525;BME280;5819;49.648;8.330;2023-01-26T04:50:55;101011.84;;;0.22;100.00
11525;BME280;5819;49.648;8.330;2023-01-26T04:53:23;101003.34;;;0.25;100.00
11525;BME280;5819;49.648;8.330;2023-01-26T04:55:52;101005.03;;;0.23;100.00
11525;BME280;5819;49.648;8.330;2023-01-26T04:58:20;101001.66;;;0.27;100.00
11525;BME280;5819;49.648;8.330;2023-01-26T05:00:52;101001.59;;;0.21;100.00
11525;BME280;5819;49.648;8.330;2023-01-26T05:03:21;100996.47;;;0.19;100.00
11525;BME280;5819;49.648;8.330;2023-01-26T05:05:52;100995.63;;;0.20;100.00
11525;BME280;5819;49.648;8.330;2023-01-26T05:08:22;100999.84;;;0.17;100.00
11525;BME280;5819;49.648;8.330;2023-01-26T05:10:50;100999.91;;;0.21;100.00
11525;BME280;5819;49.648;8.330;2023-01-26T05:13:24;100993.91;;;0.21;100.00
11525;BME280;5819;49.648;8.330;2023-01-26T05:16:08;100993.13;;;0.26;100.00
11525;BME280;5819;49.648;8.330;2023-01-26T05:18:52;100989.66;;;0.21;100.00
11525;BME280;5819;49.648;8.330;2023-01-26T05:21:34;100998.09;;;0.13;100.00
11525;BME280;5819;49.648;8.330;2023-01-26T05:24:02;100994.69;;;0.12;100.00
11525;BME280;5819;49.648;8.330;2023-01-26T05:26:50;100986.19;;;0.16;100.00
11525;BME280;5819;49.648;8.330;2023-01-26T05:29:39;100982.75;;;0.11;100.00
11525;BME280;5819;49.648;8.330;2023-01-26T05:32:06;100987.81;;;0.07;100.00
11525;BME280;5819;49.648;8.330;2023-01-26T05:34:35;100989.53;;;0.08;100.00
11525;BME280;5819;49.648;8.330;2023-01-26T05:37:05;100995.50;;;0.10;100.00
11525;BME280;5819;49.648;8.330;2023-01-26T05:39:34;100991.19;;;0.03;100.00
11525;BME280;5819;49.648;8.330;2023-01-26T05:42:04;100987.88;;;0.13;100.00
11525;BME280;5819;49.648;8.330;2023-01-26T05:44:32;100987.84;;;0.10;100.00
11525;BME280;5819;49.648;8.330;2023-01-26T05:47:04;100992.13;;;0.11;100.00
11525;BME280;5819;49.648;8.330;2023-01-26T05:49:33;100997.22;;;0.08;100.00
11525;BME280;5819;49.648;8.330;2023-01-26T05:52:08;101000.72;;;0.19;100.00
11525;BME280;5819;49.648;8.330;2023-01-26T05:54:39;100998.88;;;0.06;100.00
11525;BME280;5819;49.648;8.330;2023-01-26T05:57:07;100999.72;;;0.05;100.00
11525;BME280;5819;49.648;8.330;2023-01-26T05:59:39;101002.28;;;0.05;100.00
11525;BME280;5819;49.648;8.330;2023-01-26T06:02:10;100999.75;;;0.06;100.00
11525;BME280;5819;49.648;8.330;2023-01-26T06:04:41;101003.22;;;0.11;100.00
11525;BME280;5819;49.648;8.330;2023-01-26T06:07:11;101013.38;;;0.05;100.00
11525;BME280;5819;49.648;8.330;2023-01-26T06:09:53;101014.19;;;0.03;100.00
11525;BME280;5819;49.648;8.330;2023-01-26T06:12:44;101015.03;;;0.02;100.00
11525;BME280;5819;49.648;8.330;2023-01-26T06:15:36;101020.19;;;0.03;100.00
11525;BME280;5819;49.648;8.330;2023-01-26T06:18:04;101019.31;;;0.03;100.00
11525;BME280;5819;49.648;8.330;2023-01-26T06:20:34;101024.47;;;0.07;100.00
11525;BME280;5819;49.648;8.330;2023-01-26T06:23:05;101032.97;;;0.03;100.00
11525;BME280;5819;49.648;8.330;2023-01-26T06:25:39;101029.56;;;0.06;100.00
11525;BME280;5819;49.648;8.330;2023-01-26T06:28:07;101026.16;;;0.04;100.00
11525;BME280;5819;49.648;8.330;2023-01-26T06:30:36;101030.44;;;0.06;100.00
11525;BME280;5819;49.648;8.330;2023-01-26T06:33:09;101031.25;;;0.04;100.00
11525;BME280;5819;49.648;8.330;2023-01-26T06:35:38;101044.88;;;0.03;100.00
11525;BME280;5819;49.648;8.330;2023-01-26T06:38:13;101039.72;;;-0.02;100.00
11525;BME280;5819;49.648;8.330;2023-01-26T06:40:41;101046.56;;;-0.01;100.00
11525;BME280;5819;49.648;8.330;2023-01-26T06:43:10;101046.59;;;0.04;100.00
11525;BME280;5819;49.648;8.330;2023-01-26T06:45:39;101050.03;;;0.06;100.00
11525;BME280;5819;49.648;8.330;2023-01-26T06:48:07;101047.50;;;0.07;100.00
11525;BME280;5819;49.648;8.330;2023-01-26T06:50:35;101040.66;;;0.06;100.00
11525;BME280;5819;49.648;8.330;2023-01-26T06:53:25;101049.09;;;0.00;100.00
11525;BME280;5819;49.648;8.330;2023-01-26T06:56:19;101044.06;;;0.05;100.00
11525;BME280;5819;49.648;8.330;2023-01-26T06:58:57;101048.34;;;0.08;100.00
11525;BME280;5819;49.648;8.330;2023-01-26T07:01:46;101045.81;;;0.09;100.00
11525;BME280;5819;49.648;8.330;2023-01-26T07:04:15;101042.44;;;0.12;100.00
11525;BME280;5819;49.648;8.330;2023-01-26T07:06:44;101041.56;;;0.11;100.00
11525;BME280;5819;49.648;8.330;2023-01-26T07:09:16;101039.78;;;0.06;100.00
11525;BME280;5819;49.648;8.330;2023-01-26T07:11:44;101044.03;;;0.02;100.00
11525;BME280;5819;49.648;8.330;2023-01-26T07:14:13;101043.22;;;0.06;100.00
11525;BME280;5819;49.648;8.330;2023-01-26T07:16:41;101044.06;;;0.05;100.00
11525;BME280;5819;49.648;8.330;2023-01-26T07:19:09;101044.09;;;0.10;100.00
11525;BME280;5819;49.648;8.330;2023-01-26T07:21:37;101050.00;;;0.04;100.00
11525;BME280;5819;49.648;8.330;2023-01-26T07:24:07;101059.44;;;0.10;100.00
11525;BME280;5819;49.648;8.330;2023-01-26T07:26:39;101051.06;;;0.20;100.00
11525;BME280;5819;49.648;8.330;2023-01-26T07:29:08;101050.13;;;0.12;100.00
11525;BME280;5819;49.648;8.330;2023-01-26T07:31:36;101061.94;;;0.05;100.00
11525;BME280;5819;49.648;8.330;2023-01-26T07:34:04;101058.53;;;0.03;100.00
11525;BME280;5819;49.648;8.330;2023-01-26T07:36:32;101061.94;;;0.05;100.00
11525;BME280;5819;49.648;8.330;2023-01-26T07:39:00;101068.72;;;0.02;100.00
11525;BME280;5819;49.648;8.330;2023-01-26T07:41:28;101067.94;;;0.09;100.00
11525;BME280;5819;49.648;8.330;2023-01-26T07:44:00;101061.28;;;0.20;100.00
11525;BME280;5819;49.648;8.330;2023-01-26T07:46:28;101068.28;;;0.37;100.00
11525;BME280;5819;49.648;8.330;2023-01-26T07:48:59;101071.47;;;0.17;100.00
11525;BME280;5819;49.648;8.330;2023-01-26T07:51:28;101067.16;;;0.11;100.00
11525;BME280;5819;49.648;8.330;2023-01-26T07:53:56;101068.75;;;0.03;100.00
11525;BME280;5819;49.648;8.330;2023-01-26T07:56:24;101065.31;;;0.01;100.00
11525;BME280;5819;49.648;8.330;2023-01-26T07:58:53;101064.53;;;0.07;100.00
11525;BME280;5819;49.648;8.330;2023-01-26T08:01:22;101071.28;;;0.02;100.00
11525;BME280;5819;49.648;8.330;2023-01-26T08:03:52;101067.94;;;0.09;100.00
11525;BME280;5819;49.648;8.330;2023-01-26T08:06:20;101064.59;;;0.11;100.00
11525;BME280;5819;49.648;8.330;2023-01-26T08:08:49;101065.44;;;0.13;100.00
11525;BME280;5819;49.648;8.330;2023-01-26T08:11:19;101056.94;;;0.14;100.00
11525;BME280;5819;49.648;8.330;2023-01-26T08:13:50;101056.97;;;0.17;100.00
11525;BME280;5819;49.648;8.330;2023-01-26T08:16:18;101061.28;;;0.20;100.00
11525;BME280;5819;49.648;8.330;2023-01-26T08:18:48;101056.09;;;0.14;100.00
11525;BME280;5819;49.648;8.330;2023-01-26T08:21:18;101059.50;;;0.14;100.00
11525;BME280;5819;49.648;8.330;2023-01-26T08:23:50;101059.56;;;0.20;100.00
11525;BME280;5819;49.648;8.330;2023-01-26T08:26:20;101068.19;;;0.30;100.00
11525;BME280;5819;49.648;8.330;2023-01-26T08:28:48;101071.69;;;0.35;100.00
11525;BME280;5819;49.648;8.330;2023-01-26T08:31:18;101071.81;;;0.47;100.00
11525;BME280;5819;49.648;8.330;2023-01-26T08:33:49;101076.03;;;0.43;100.00
11525;BME280;5819;49.648;8.330;2023-01-26T08:36:18;101077.63;;;0.34;100.00
11525;BME280;5819;49.648;8.330;2023-01-26T08:38:48;101079.31;;;0.32;100.00
11525;BME280;5819;49.648;8.330;2023-01-26T08:41:18;101086.19;;;0.36;100.00
11525;BME280;5819;49.648;8.330;2023-01-26T08:43:46;101087.00;;;0.33;100.00
11525;BME280;5819;49.648;8.330;2023-01-26T08:46:15;101086.97;;;0.30;100.00
11525;BME280;5819;49.648;8.330;2023-01-26T08:48:44;101088.63;;;0.24;100.00
11525;BME280;5819;49.648;8.330;2023-01-26T08:51:13;101084.31;;;0.24;100.00
11525;BME280;5819;49.648;8.330;2023-01-26T08:53:41;101078.47;;;0.31;100.00
11525;BME280;5819;49.648;8.330;2023-01-26T08:56:11;101087.00;;;0.33;100.00
11525;BME280;5819;49.648;8.330;2023-01-26T08:58:39;101087.81;;;0.28;100.00
11525;BME280;5819;49.648;8.330;2023-01-26T09:01:10;101083.56;;;0.30;100.00
11525;BME280;5819;49.648;8.330;2023-01-26T09:03:38;101093.69;;;0.22;100.00
11525;BME280;5819;49.648;8.330;2023-01-26T09:06:07;101099.69;;;0.23;100.00
11525;BME280;5819;49.648;8.330;2023-01-26T09:08:37;101097.97;;;0.23;100.00
11525;BME280;5819;49.648;8.330;2023-01-26T09:11:06;101100.59;;;0.29;100.00
11525;BME280;5819;49.648;8.330;2023-01-26T09:13:34;101100.59;;;0.28;100.00
11525;BME280;5819;49.648;8.330;2023-01-26T09:16:06;101091.25;;;0.33;100.00
11525;BME280;5819;49.648;8.330;2023-01-26T09:18:35;101104.09;;;0.36;100.00
11525;BME280;5819;49.648;8.330;2023-01-26T09:21:04;101095.50;;;0.31;100.00
11525;BME280;5819;49.648;8.330;2023-01-26T09:23:33;101087.81;;;0.29;100.00
11525;BME280;5819;49.648;8.330;2023-01-26T09:26:03;101087.06;;;0.39;100.00
11525;BME280;5819;49.648;8.330;2023-01-26T09:28:31;101087.88;;;0.37;100.00
11525;BME280;5819;49.648;8.330;2023-01-26T09:31:02;101093.88;;;0.40;100.00
11525;BME280;5819;49.648;8.330;2023-01-26T09:33:31;101095.47;;;0.28;100.00
11525;BME280;5819;49.648;8.330;2023-01-26T09:36:02;101097.22;;;0.33;100.00
11525;BME280;5819;49.648;8.330;2023-01-26T09:38:30;101089.56;;;0.33;100.00
11525;BME280;5819;49.648;8.330;2023-01-26T09:41:05;101086.28;;;0.46;100.00
11525;BME280;5819;49.648;8.330;2023-01-26T09:43:37;101086.28;;;0.43;100.00
11525;BME280;5819;49.648;8.330;2023-01-26T09:46:18;101094.69;;;0.35;100.00
11525;BME280;5819;49.648;8.330;2023-01-26T09:48:54;101094.69;;;0.32;100.00
11525;BME280;5819;49.648;8.330;2023-01-26T09:51:28;101089.66;;;0.42;100.00
11525;BME280;5819;49.648;8.330;2023-01-26T09:54:02;101084.44;;;0.33;100.00
11525;BME280;5819;49.648;8.330;2023-01-26T09:56:33;101094.63;;;0.27;100.00
11525;BME280;5819;49.648;8.330;2023-01-26T09:59:05;101091.22;;;0.30;100.00
11525;BME280;5819;49.648;8.330;2023-01-26T10:01:44;101087.81;;;0.28;100.00
11525;BME280;5819;49.648;8.330;2023-01-26T10:04:24;101091.16;;;0.25;100.00
11525;BME280;5819;49.648;8.330;2023-01-26T10:06:59;101092.06;;;0.27;100.00
11525;BME280;5819;49.648;8.330;2023-01-26T10:09:46;101080.97;;;0.28;100.00
11525;BME280;5819;49.648;8.330;2023-01-26T10:12:20;101075.00;;;0.26;100.00
11525;BME280;5819;49.648;8.330;2023-01-26T10:14:52;101074.28;;;0.39;100.00
11525;BME280;5819;49.648;8.330;2023-01-26T10:17:26;101071.69;;;0.38;100.00
11525;BME280;5819;49.648;8.330;2023-01-26T10:19:59;101076.75;;;0.33;100.00
11525;BME280;5819;49.648;8.330;2023-01-26T10:22:37;101080.94;;;0.24;100.00
11525;BME280;5819;49.648;8.330;2023-01-26T10:25:13;101081.03;;;0.31;100.00
11525;BME280;5819;49.648;8.330;2023-01-26T10:27:44;101072.53;;;0.35;100.00
11525;BME280;5819;49.648;8.330;2023-01-26T10:30:13;101069.09;;;0.32;100.00
11525;BME280;5819;49.648;8.330;2023-01-26T10:32:43;101075.38;;;0.64;100.00
11525;BME280;5819;49.648;8.330;2023-01-26T10:35:16;101071.81;;;0.47;100.00
11525;BME280;5819;49.648;8.330;2023-01-26T10:37:44;101070.03;;;0.41;100.00
11525;BME280;5819;49.648;8.330;2023-01-26T10:40:13;101069.19;;;0.42;100.00
11525;BME280;5819;49.648;8.330;2023-01-26T10:42:53;101063.16;;;0.36;100.00
11525;BME280;5819;49.648;8.330;2023-01-26T10:45:27;101058.94;;;0.39;100.00
11525;BME280;5819;49.648;8.330;2023-01-26T10:48:15;101067.59;;;0.52;100.00
11525;BME280;5819;49.648;8.330;2023-01-26T10:50:44;101059.88;;;0.47;100.00
11525;BME280;5819;49.648;8.330;2023-01-26T10:53:16;101047.06;;;0.47;100.00
11525;BME280;5819;49.648;8.330;2023-01-26T10:55:58;101058.91;;;0.38;100.00
11525;BME280;5819;49.648;8.330;2023-01-26T10:58:41;101054.81;;;0.57;100.00
11525;BME280;5819;49.648;8.330;2023-01-26T11:01:11;101051.25;;;0.39;100.00
11525;BME280;5819;49.648;8.330;2023-01-26T11:03:41;101047.03;;;0.44;100.00
11525;BME280;5819;49.648;8.330;2023-01-26T11:06:13;101049.69;;;0.52;100.00
11525;BME280;5819;49.648;8.330;2023-01-26T11:08:42;101042.13;;;0.64;100.00
11525;BME280;5819;49.648;8.330;2023-01-26T11:11:23;101038.63;;;0.56;100.00
11525;BME280;5819;49.648;8.330;2023-01-26T11:14:13;101036.00;;;0.50;100.00
11525;BME280;5819;49.648;8.330;2023-01-26T11:16:44;101033.41;;;0.48;100.00
11525;BME280;5819;49.648;8.330;2023-01-26T11:19:22;101032.66;;;0.56;100.00
11525;BME280;5819;49.648;8.330;2023-01-26T11:21:57;101032.75;;;0.68;100.00
11525;BME280;5819;49.648;8.330;2023-01-26T11:24:31;101036.19;;;0.71;100.00
11525;BME280;5819;49.648;8.330;2023-01-26T11:27:42;101021.66;;;0.69;100.00
11525;BME280;5819;49.648;8.330;2023-01-26T11:33:37;101025.00;;;0.60;100.00
11525;BME280;5819;49.648;8.330;2023-01-26T11:36:12;101022.34;;;0.53;100.00
11525;BME280;5819;49.648;8.330;2023-01-26T11:38:46;101021.44;;;0.44;100.00
11525;BME280;5819;49.648;8.330;2023-01-26T11:41:28;101019.75;;;0.43;100.00
11525;BME280;5819;49.648;8.330;2023-01-26T11:44:24;101016.34;;;0.46;100.00
11525;BME280;5819;49.648;8.330;2023-01-26T11:47:08;101002.75;;;0.52;100.00
11525;BME280;5819;49.648;8.330;2023-01-26T11:49:51;101003.59;;;0.51;100.00
11525;BME280;5819;49.648;8.330;2023-01-26T11:52:31;101005.34;;;0.55;100.00
11525;BME280;5819;49.648;8.330;2023-01-26T11:55:27;100996.81;;;0.56;100.00
11525;BME280;5819;49.648;8.330;2023-01-26T11:58:06;100997.75;;;0.64;100.00
11525;BME280;5819;49.648;8.330;2023-01-26T12:00:40;100985.84;;;0.73;100.00
11525;BME280;5819;49.648;8.330;2023-01-26T12:03:16;100990.78;;;0.51;100.00
11525;BME280;5819;49.648;8.330;2023-01-26T12:05:51;100987.41;;;0.52;100.00
11525;BME280;5819;49.648;8.330;2023-01-26T12:08:22;100995.88;;;0.49;100.00
11525;BME280;5819;49.648;8.330;2023-01-26T12:10:59;100990.78;;;0.51;100.00
11525;BME280;5819;49.648;8.330;2023-01-26T12:14:02;100996.03;;;0.64;100.00
11525;BME280;5819;49.648;8.330;2023-01-26T12:16:39;100984.00;;;0.54;100.00
11525;BME280;5819;49.648;8.330;2023-01-26T12:19:16;100982.19;;;0.42;100.00
11525;BME280;5819;49.648;8.330;2023-01-26T12:21:48;100983.00;;;0.38;100.00
11525;BME280;5819;49.648;8.330;2023-01-26T12:24:22;100987.25;;;0.35;100.00
11525;BME280;5819;49.648;8.330;2023-01-26T12:27:17;100966.84;;;0.42;100.00
11525;BME280;5819;49.648;8.330;2023-01-26T12:29:51;100969.44;;;0.47;100.00
11525;BME280;5819;49.648;8.330;2023-01-26T12:32:23;100964.28;;;0.42;100.00
11525;BME280;5819;49.648;8.330;2023-01-26T12:34:51;100963.53;;;0.56;100.00
11525;BME280;5819;49.648;8.330;2023-01-26T12:37:34;100964.22;;;0.36;100.00
11525;BME280;5819;49.648;8.330;2023-01-26T12:40:14;100965.94;;;0.36;100.00
11525;BME280;5819;49.648;8.330;2023-01-26T12:42:48;100959.09;;;0.32;100.00
11525;BME280;5819;49.648;8.330;2023-01-26T12:45:21;100954.97;;;0.51;100.00
11525;BME280;5819;49.648;8.330;2023-01-26T12:47:54;100954.78;;;0.32;100.00
11525;BME280;5819;49.648;8.330;2023-01-26T12:50:26;100952.22;;;0.29;100.00
11525;BME280;5819;49.648;8.330;2023-01-26T12:53:02;100954.03;;;0.39;100.00
11525;BME280;5819;49.648;8.330;2023-01-26T12:55:38;100945.41;;;0.33;100.00
11525;BME280;5819;49.648;8.330;2023-01-26T12:58:10;100952.28;;;0.35;100.00
11525;BME280;5819;49.648;8.330;2023-01-26T13:00:50;100949.78;;;0.44;100.00
11525;BME280;5819;49.648;8.330;2023-01-26T13:03:23;100939.66;;;0.55;100.00
11525;BME280;5819;49.648;8.330;2023-01-26T13:05:56;100940.44;;;0.50;100.00
11525;BME280;5819;49.648;8.330;2023-01-26T13:08:49;100942.94;;;0.40;100.00
11525;BME280;5819;49.648;8.330;2023-01-26T13:11:41;100939.47;;;0.34;100.00
11525;BME280;5819;49.648;8.330;2023-01-26T13:17:50;100933.56;;;0.42;100.00
11525;BME280;5819;49.648;8.330;2023-01-26T13:20:23;100936.22;;;0.52;100.00
11525;BME280;5819;49.648;8.330;2023-01-26T13:22:52;100939.50;;;0.38;100.00
11525;BME280;5819;49.648;8.330;2023-01-26T13:25:29;100940.44;;;0.50;100.00
11525;BME280;5819;49.648;8.330;2023-01-26T13:28:00;100932.78;;;0.51;100.00
11525;BME280;5819;49.648;8.330;2023-01-26T13:30:46;100932.75;;;0.43;100.00
11525;BME280;5819;49.648;8.330;2023-01-26T13:33:19;100940.38;;;0.39;100.00
11525;BME280;5819;49.648;8.330;2023-01-26T13:35:50;100938.66;;;0.41;100.00
11525;BME280;5819;49.648;8.330;2023-01-26T13:38:25;100934.44;;;0.43;100.00
11525;BME280;5819;49.648;8.330;2023-01-26T13:40:56;100937.88;;;0.46;100.00
11525;BME280;5819;49.648;8.330;2023-01-26T13:43:32;100932.91;;;0.69;100.00
11525;BME280;5819;49.648;8.330;2023-01-26T13:46:11;100936.28;;;0.59;100.00
11525;BME280;5819;49.648;8.330;2023-01-26T13:48:44;100946.38;;;0.45;100.00